Time;durP1;ratioP1;P1;durP2;ratioP2;P2;SDS_P1;SDS_P2;PMS_P1;PMS_P2;Temp;Humidity;BMP_temperature;BMP_pressure;BME280_temperature;BME280_humidity;BME280_pressure;Samples;Min_cycle;Max_cycle;Signal;HPM_P1;HPM_P2
2021/09/26 00:02:43;;;;;;;18.17;13.05;;;;;;;15.82;80.60;100528.34;2063191;84;21048;-79
2021/09/26 00:05:44;;;;;;;14.40;12.35;;;;;;;15.77;80.59;100522.73;2058759;84;21062;-76
2021/09/26 00:08:47;;;;;;;15.60;11.48;;;;;;;15.75;80.70;100518.09;2061321;84;21018;-79
2021/09/26 00:11:48;;;;;;;19.73;12.95;;;;;;;15.76;80.76;100518.41;2059096;84;21714;-76
2021/09/26 00:14:50;;;;;;;22.65;15.70;;;;;;;15.76;80.82;100523.75;2065498;84;21051;-79
2021/09/26 00:17:52;;;;;;;18.50;14.03;;;;;;;15.76;80.85;100527.25;2061718;84;21500;-76
2021/09/26 00:20:53;;;;;;;19.82;14.70;;;;;;;15.76;80.90;100525.09;2061563;84;21009;-78
2021/09/26 00:23:56;;;;;;;17.87;14.30;;;;;;;15.78;80.88;100523.06;2063433;84;21060;-78
2021/09/26 00:26:58;;;;;;;25.82;18.67;;;;;;;15.76;80.86;100515.73;2060349;84;20987;-78
2021/09/26 00:30:00;;;;;;;21.87;17.17;;;;;;;15.68;80.94;100512.66;2053949;84;21070;-78
2021/09/26 00:33:01;;;;;;;19.95;15.83;;;;;;;15.66;81.11;100516.84;2058460;84;21481;-78
2021/09/26 00:36:03;;;;;;;16.25;13.60;;;;;;;15.61;81.22;100515.77;2060338;84;21005;-76
2021/09/26 00:39:05;;;;;;;18.17;13.98;;;;;;;15.53;81.25;100514.55;2063715;84;21024;-78
2021/09/26 00:42:07;;;;;;;16.00;13.13;;;;;;;15.53;81.45;100515.36;2055616;84;21520;-76
2021/09/26 00:45:09;;;;;;;18.07;13.58;;;;;;;15.55;81.45;100515.19;2067634;84;20947;-79
2021/09/26 00:48:11;;;;;;;20.45;14.45;;;;;;;15.54;81.45;100514.84;2062847;84;21575;-80
2021/09/26 00:51:13;;;;;;;20.48;14.47;;;;;;;15.54;81.53;100514.84;2061753;84;20994;-81
2021/09/26 00:54:16;;;;;;;16.93;14.05;;;;;;;15.53;81.65;100518.55;2060875;84;21000;-78
2021/09/26 00:57:18;;;;;;;20.00;15.80;;;;;;;15.52;81.62;100519.06;2057378;84;21050;-78
2021/09/26 01:00:20;;;;;;;18.17;13.85;;;;;;;15.52;81.64;100516.39;2060704;84;20986;-78
2021/09/26 01:03:22;;;;;;;19.40;13.90;;;;;;;15.53;81.66;100515.36;2061915;84;21074;-79
2021/09/26 01:06:45;;;;;;;18.60;14.43;;;;;;;15.54;81.67;100520.20;2067953;84;20931;-79
2021/09/26 01:09:58;;;;;;;18.12;15.80;;;;;;;15.56;81.67;100520.84;2055651;84;21015;-77
2021/09/26 01:13:32;;;;;;;18.17;15.00;;;;;;;15.54;81.64;100522.39;2060478;84;20985;-76
2021/09/26 01:16:44;;;;;;;19.90;14.98;;;;;;;15.52;81.67;100524.41;2061067;84;21003;-76
2021/09/26 01:20:17;;;;;;;22.80;15.15;;;;;;;15.49;81.69;100519.96;2062376;84;21061;-77
2021/09/26 01:23:39;;;;;;;19.62;15.43;;;;;;;15.48;81.74;100519.11;2054169;84;21001;-75
2021/09/26 01:27:26;;;;;;;22.27;15.60;;;;;;;15.47;81.73;100521.47;2063417;84;20947;-78
2021/09/26 01:30:39;;;;;;;18.45;14.23;;;;;;;15.46;81.79;100522.50;2083064;84;21046;-78
2021/09/26 01:33:51;;;;;;;21.97;13.62;;;;;;;15.48;81.81;100523.12;2083869;84;21026;-77
2021/09/26 01:37:04;;;;;;;17.95;13.70;;;;;;;15.49;81.86;100524.80;2084333;84;21494;-76
2021/09/26 01:40:32;;;;;;;16.17;14.20;;;;;;;15.50;81.86;100529.63;2086717;84;21004;-78
2021/09/26 01:43:40;;;;;;;19.30;14.13;;;;;;;15.50;81.88;100525.11;2080255;83;21065;-76
2021/09/26 01:46:47;;;;;;;22.87;14.75;;;;;;;15.51;81.86;100525.92;2088474;84;21475;-78
2021/09/26 01:49:52;;;;;;;20.80;15.98;;;;;;;15.46;81.86;100524.66;2083620;84;21042;-78
2021/09/26 01:52:57;;;;;;;17.45;13.00;;;;;;;15.48;81.90;100523.12;2086390;84;21094;-77
2021/09/26 01:56:00;;;;;;;20.20;14.78;;;;;;;15.48;81.94;100520.44;2084180;84;21019;-77
2021/09/26 01:59:04;;;;;;;19.57;13.88;;;;;;;15.48;81.93;100532.48;2075276;84;21007;-75
2021/09/26 02:02:07;;;;;;;20.48;16.75;;;;;;;15.49;81.99;100529.32;2085315;84;20967;-77
2021/09/26 02:05:09;;;;;;;25.50;18.40;;;;;;;15.46;81.94;100527.84;2082014;84;20983;-77
2021/09/26 02:08:12;;;;;;;25.55;18.92;;;;;;;15.39;81.96;100529.61;2083615;84;21046;-76
2021/09/26 02:11:14;;;;;;;23.95;17.85;;;;;;;15.38;82.09;100523.95;2082888;84;21102;-78
2021/09/26 02:14:17;;;;;;;28.07;18.45;;;;;;;15.37;82.10;100524.95;2088409;84;21525;-77
2021/09/26 02:17:22;;;;;;;24.37;17.50;;;;;;;15.33;82.12;100528.52;2079302;84;21008;-78
2021/09/26 02:20:25;;;;;;;19.77;15.72;;;;;;;15.36;82.15;100532.66;2079557;84;21593;-78
2021/09/26 02:23:27;;;;;;;20.48;16.87;;;;;;;15.39;82.20;100538.45;2086729;84;20998;-77
2021/09/26 02:26:29;;;;;;;21.80;16.45;;;;;;;15.37;82.17;100540.98;2083252;84;21372;-78
2021/09/26 02:29:33;;;;;;;22.17;16.82;;;;;;;15.35;82.19;100541.20;2086304;84;21066;-79
2021/09/26 02:32:35;;;;;;;20.52;16.10;;;;;;;15.37;82.24;100543.66;2079933;84;21063;-75
2021/09/26 02:35:37;;;;;;;27.07;18.42;;;;;;;15.38;82.34;100545.34;2084448;84;21019;-77
2021/09/26 02:38:39;;;;;;;20.37;16.48;;;;;;;15.40;82.40;100541.47;2086206;84;20969;-76
2021/09/26 02:41:55;;;;;;;23.90;17.15;;;;;;;15.41;82.36;100544.45;2083783;84;21028;-78
2021/09/26 02:45:08;;;;;;;22.05;16.20;;;;;;;15.43;82.39;100546.95;2085283;84;21482;-77
2021/09/26 02:48:19;;;;;;;19.10;14.28;;;;;;;15.39;82.32;100542.98;2080365;84;21121;-77
2021/09/26 02:51:22;;;;;;;19.82;15.85;;;;;;;15.36;82.39;100546.85;2081124;84;21554;-78
2021/09/26 02:54:25;;;;;;;17.75;14.25;;;;;;;15.34;82.48;100550.72;2086018;84;21002;-76
2021/09/26 02:57:27;;;;;;;21.65;14.07;;;;;;;15.33;82.53;100549.08;2086820;84;21066;-77
2021/09/26 03:00:39;;;;;;;18.35;14.25;;;;;;;15.32;82.62;100553.60;2089404;84;20968;-76
2021/09/26 03:03:40;;;;;;;19.25;13.93;;;;;;;15.32;82.68;100556.28;2086151;84;21059;-78
2021/09/26 03:06:42;;;;;;;22.40;15.48;;;;;;;15.31;82.74;100550.59;2090099;84;21014;-78
2021/09/26 03:09:43;;;;;;;20.05;14.75;;;;;;;15.33;82.77;100549.91;2090115;84;21015;-77
2021/09/26 03:12:45;;;;;;;17.12;13.80;;;;;;;15.36;82.80;100551.38;2082239;84;21418;-77
2021/09/26 03:15:46;;;;;;;21.50;14.80;;;;;;;15.36;82.72;100551.38;2081054;84;20996;-78
2021/09/26 03:18:48;;;;;;;26.42;17.52;;;;;;;15.37;82.74;100555.70;2086258;84;21022;-75
2021/09/26 03:21:50;;;;;;;22.25;15.78;;;;;;;15.34;82.65;100552.06;2079894;84;21898;-78
2021/09/26 03:24:51;;;;;;;18.50;15.28;;;;;;;15.30;82.74;100551.61;2088336;84;21023;-77
2021/09/26 03:27:55;;;;;;;21.68;14.68;;;;;;;15.30;82.76;100550.80;2081142;84;21061;-76
2021/09/26 03:30:56;;;;;;;19.57;15.63;;;;;;;15.33;82.81;100553.09;2084820;84;21062;-79
2021/09/26 03:33:59;;;;;;;18.45;14.53;;;;;;;15.34;82.78;100549.39;2080796;84;20975;-76
2021/09/26 03:37:02;;;;;;;21.80;16.05;;;;;;;15.34;82.74;100552.88;2086100;84;21340;-78
2021/09/26 03:40:07;;;;;;;18.57;13.88;;;;;;;15.32;82.69;100559.46;2084416;84;21004;-78
2021/09/26 03:43:09;;;;;;;20.00;14.87;;;;;;;15.30;82.75;100552.13;2082287;84;21009;-76
2021/09/26 03:46:10;;;;;;;17.27;14.90;;;;;;;15.24;82.79;100555.04;2086205;84;20987;-76
2021/09/26 03:49:12;;;;;;;20.40;14.78;;;;;;;15.13;82.91;100551.50;2083564;84;20995;-76
2021/09/26 03:52:13;;;;;;;23.35;15.65;;;;;;;15.10;83.12;100556.71;2088806;84;21048;-76
2021/09/26 03:55:15;;;;;;;22.37;16.17;;;;;;;15.12;83.18;100552.50;2084201;84;20991;-76
2021/09/26 03:58:17;;;;;;;20.37;16.95;;;;;;;15.14;83.24;100555.83;2087391;84;20965;-78
2021/09/26 04:01:18;;;;;;;19.17;15.72;;;;;;;15.17;83.22;100556.27;2084881;84;21023;-80
2021/09/26 04:04:20;;;;;;;21.65;16.20;;;;;;;15.19;83.20;100546.23;2082657;84;20998;-76
2021/09/26 04:07:21;;;;;;;19.12;15.50;;;;;;;15.16;83.07;100544.45;2084335;84;21029;-79
2021/09/26 04:10:23;;;;;;;19.45;15.43;;;;;;;15.12;83.12;100548.49;2079422;84;21593;-78
2021/09/26 04:13:24;;;;;;;34.20;15.53;;;;;;;15.11;83.22;100553.02;2083315;84;21029;-76
2021/09/26 04:16:27;;;;;;;20.97;15.60;;;;;;;15.12;83.27;100552.02;2083020;84;21487;-77
2021/09/26 04:19:29;;;;;;;20.12;15.05;;;;;;;15.13;83.32;100552.33;2085765;84;20974;-76
2021/09/26 04:22:30;;;;;;;19.45;15.63;;;;;;;15.13;83.24;100552.33;2088813;84;21045;-76
2021/09/26 04:25:32;;;;;;;20.75;15.70;;;;;;;15.11;83.23;100554.34;2083290;84;21016;-79
2021/09/26 04:28:33;;;;;;;24.52;17.70;;;;;;;15.06;83.33;100554.07;2084693;83;21452;-75
2021/09/26 04:31:35;;;;;;;21.62;16.57;;;;;;;15.03;83.48;100551.77;2105163;83;20982;-80
2021/09/26 04:34:37;;;;;;;27.58;17.15;;;;;;;15.01;83.52;100557.83;2103235;83;21022;-75
2021/09/26 04:37:38;;;;;;;23.42;18.02;;;;;;;15.03;83.56;100553.11;2097535;83;21575;-76
2021/09/26 04:40:41;;;;;;;24.95;17.82;;;;;;;15.04;83.59;100562.80;2105812;83;21005;-76
2021/09/26 04:43:43;;;;;;;23.40;18.07;;;;;;;15.06;83.61;100555.92;2105096;83;21041;-77
2021/09/26 04:46:44;;;;;;;23.35;17.75;;;;;;;15.07;83.63;100555.75;2102780;83;20962;-78
2021/09/26 04:49:46;;;;;;;24.00;17.98;;;;;;;15.10;83.63;100558.56;2106287;83;21010;-74
2021/09/26 04:52:47;;;;;;;22.85;18.02;;;;;;;15.10;83.60;100555.37;2101431;83;21065;-78
2021/09/26 04:55:50;;;;;;;22.32;17.27;;;;;;;15.12;83.56;100564.52;2101965;83;21315;-77
2021/09/26 04:58:51;;;;;;;25.75;16.57;;;;;;;15.13;83.55;100567.54;2104315;83;21030;-76
2021/09/26 05:01:53;;;;;;;23.38;16.87;;;;;;;15.16;83.55;100567.99;2107433;83;21539;-78
2021/09/26 05:04:55;;;;;;;19.90;16.90;;;;;;;15.17;83.54;100564.29;2104825;83;21031;-76
2021/09/26 05:07:57;;;;;;;21.25;16.62;;;;;;;15.19;83.50;100570.29;2104708;83;21091;-78
2021/09/26 05:10:58;;;;;;;25.02;17.98;;;;;;;15.20;83.47;100572.45;2102266;83;21067;-78
2021/09/26 05:14:00;;;;;;;23.02;18.05;;;;;;;15.15;83.42;100574.36;2103283;83;21004;-79
2021/09/26 05:17:01;;;;;;;23.02;18.20;;;;;;;15.15;83.50;100581.05;2100674;83;20984;-76
2021/09/26 05:20:05;;;;;;;22.55;18.57;;;;;;;15.15;83.50;100577.03;2108052;83;21002;-76
2021/09/26 05:23:07;;;;;;;21.62;17.07;;;;;;;15.17;83.53;100583.00;2101618;83;21551;-77
2021/09/26 05:26:09;;;;;;;20.25;15.93;;;;;;;15.21;83.56;100588.31;2102699;83;21469;-79
2021/09/26 05:29:10;;;;;;;21.77;17.48;;;;;;;15.23;83.58;100590.30;2108619;83;21029;-76
2021/09/26 05:32:12;;;;;;;21.68;17.62;;;;;;;15.25;83.60;100580.75;2106841;83;21099;-79
2021/09/26 05:35:13;;;;;;;21.23;16.27;;;;;;;15.25;83.60;100588.25;2108941;83;21048;-77
2021/09/26 05:38:15;;;;;;;20.02;17.25;;;;;;;15.30;83.64;100593.56;2108868;83;21033;-76
2021/09/26 05:41:17;;;;;;;17.62;15.10;;;;;;;15.33;83.68;100591.86;2104161;83;21017;-76
2021/09/26 05:44:19;;;;;;;21.25;15.43;;;;;;;15.36;83.72;100599.50;2103252;83;20968;-78
2021/09/26 05:47:20;;;;;;;22.35;17.73;;;;;;;15.38;83.74;100605.50;2104874;83;21006;-75
2021/09/26 05:50:22;;;;;;;20.15;16.90;;;;;;;15.38;83.71;100600.16;2105524;83;20966;-78
2021/09/26 05:53:24;;;;;;;24.23;17.75;;;;;;;15.40;83.71;100600.77;2104479;83;21017;-78
2021/09/26 05:56:25;;;;;;;22.95;16.87;;;;;;;15.42;83.63;100596.08;2101321;83;20949;-77
2021/09/26 05:59:27;;;;;;;19.95;17.25;;;;;;;15.38;83.63;100592.13;2108009;83;20970;-75
2021/09/26 06:02:29;;;;;;;24.52;18.50;;;;;;;15.31;83.72;100599.22;2104784;83;21030;-78
2021/09/26 06:05:30;;;;;;;26.23;19.70;;;;;;;15.20;83.88;100596.51;2107898;83;21498;-79
2021/09/26 06:08:32;;;;;;;24.25;19.15;;;;;;;15.14;84.17;100600.75;2102592;83;20959;-78
2021/09/26 06:11:33;;;;;;;24.67;19.12;;;;;;;15.11;84.24;100598.96;2101700;83;21013;-78
2021/09/26 06:14:35;;;;;;;20.82;17.37;;;;;;;15.15;84.39;100609.63;2112140;83;21026;-76
2021/09/26 06:17:36;;;;;;;22.15;18.15;;;;;;;15.18;84.37;100603.39;2110624;83;20958;-75
2021/09/26 06:20:38;;;;;;;25.48;18.55;;;;;;;15.23;84.31;100608.16;2104316;83;20956;-78
2021/09/26 06:23:40;;;;;;;23.45;18.92;;;;;;;15.30;84.19;100613.11;2102315;83;21005;-77
2021/09/26 06:26:42;;;;;;;22.40;18.82;;;;;;;15.36;84.12;100616.87;2105598;83;21034;-76
2021/09/26 06:29:44;;;;;;;26.33;19.85;;;;;;;15.43;84.10;100606.59;2104079;83;21019;-75
2021/09/26 06:32:45;;;;;;;23.18;19.95;;;;;;;15.51;84.03;100616.34;2081840;84;21482;-78
2021/09/26 06:35:47;;;;;;;23.30;20.00;;;;;;;15.58;84.06;100615.11;2087402;84;21018;-77
2021/09/26 06:38:49;;;;;;;22.10;18.37;;;;;;;15.61;83.91;100614.21;2085019;84;20970;-79
2021/09/26 06:41:50;;;;;;;21.93;19.40;;;;;;;15.65;83.85;100617.33;2078689;84;20970;-77
2021/09/26 06:44:52;;;;;;;23.15;18.85;;;;;;;15.72;83.94;100614.78;2092927;84;21066;-77
2021/09/26 06:47:54;;;;;;;24.65;19.95;;;;;;;15.78;83.92;100611.35;2083639;84;21019;-78
2021/09/26 06:50:55;;;;;;;23.00;17.65;;;;;;;15.86;83.93;100613.40;2085795;84;21014;-77
2021/09/26 06:53:57;;;;;;;21.97;17.80;;;;;;;15.93;83.80;100617.47;2091193;84;20964;-78
2021/09/26 06:56:59;;;;;;;20.45;17.07;;;;;;;15.97;83.45;100618.77;2083177;84;21059;-75
2021/09/26 07:00:01;;;;;;;19.37;16.42;;;;;;;16.03;83.51;100618.52;2083900;84;21075;-77
2021/09/26 07:03:03;;;;;;;18.80;16.37;;;;;;;16.13;83.44;100629.23;2086368;84;21018;-78
2021/09/26 07:06:04;;;;;;;21.65;15.68;;;;;;;16.23;83.26;100624.89;2087973;84;21016;-77
2021/09/26 07:09:06;;;;;;;16.80;14.55;;;;;;;16.31;83.10;100626.63;2081221;84;21039;-77
2021/09/26 07:12:09;;;;;;;21.80;16.48;;;;;;;16.39;82.93;100625.16;2079251;84;21517;-78
2021/09/26 07:15:11;;;;;;;21.52;14.93;;;;;;;16.50;82.85;100620.61;2082977;84;21015;-79
2021/09/26 07:18:12;;;;;;;19.40;15.58;;;;;;;16.58;82.47;100622.30;2085353;84;21411;-77
2021/09/26 07:21:15;;;;;;;15.63;13.83;;;;;;;16.66;82.39;100619.48;2081749;84;21004;-78
2021/09/26 07:24:17;;;;;;;19.75;13.98;;;;;;;16.75;82.25;100622.84;2087482;84;21517;-78
2021/09/26 07:27:21;;;;;;;19.67;14.35;;;;;;;16.82;82.13;100635.01;2083706;84;21604;-75
2021/09/26 07:30:23;;;;;;;15.93;12.60;;;;;;;16.88;81.84;100636.38;2090285;83;21102;-79
2021/09/26 07:33:24;;;;;;;19.30;12.60;;;;;;;16.90;81.36;100634.86;2111041;83;21046;-77
2021/09/26 07:36:26;;;;;;;14.30;12.55;;;;;;;16.93;81.28;100641.98;2101552;83;21041;-78
2021/09/26 07:39:27;;;;;;;18.67;13.00;;;;;;;16.98;81.43;100646.26;2105115;83;21496;-78
2021/09/26 07:42:29;;;;;;;15.68;12.13;;;;;;;17.08;81.00;100648.58;2101284;83;21072;-77
2021/09/26 07:45:31;;;;;;;19.45;13.43;;;;;;;17.13;80.74;100644.80;2105324;83;20967;-77
2021/09/26 07:48:32;;;;;;;18.42;11.75;;;;;;;17.21;80.98;100643.83;2104508;83;21021;-76
2021/09/26 07:51:34;;;;;;;13.30;11.90;;;;;;;17.33;80.88;100654.30;2104547;83;20972;-78
2021/09/26 07:54:35;;;;;;;12.00;10.70;;;;;;;17.44;80.24;100660.97;2104311;83;20988;-75
2021/09/26 07:57:37;;;;;;;12.78;10.75;;;;;;;17.50;80.06;100658.82;2099011;83;21067;-78
2021/09/26 08:00:39;;;;;;;12.00;9.25;;;;;;;17.61;79.82;100656.91;2100134;83;20947;-76
2021/09/26 08:03:41;;;;;;;16.80;12.07;;;;;;;17.75;79.83;100659.14;2102686;83;21468;-76
2021/09/26 08:06:42;;;;;;;13.25;11.25;;;;;;;17.83;79.32;100665.71;2103538;83;21034;-79
2021/09/26 08:09:44;;;;;;;12.28;10.18;;;;;;;17.90;78.93;100661.17;2100487;83;21037;-78
2021/09/26 08:12:46;;;;;;;12.55;9.55;;;;;;;18.00;78.45;100660.81;2097960;83;20998;-77
2021/09/26 08:15:47;;;;;;;10.32;9.20;;;;;;;18.12;77.46;100659.70;2100554;83;21065;-78
2021/09/26 08:18:49;;;;;;;10.85;8.40;;;;;;;18.26;77.25;100661.90;2102562;83;21073;-80
2021/09/26 08:21:51;;;;;;;11.97;9.30;;;;;;;18.41;77.60;100657.16;2106971;83;20974;-77
2021/09/26 08:24:53;;;;;;;11.05;8.10;;;;;;;18.58;77.29;100665.64;2102835;83;21088;-80
2021/09/26 08:27:55;;;;;;;10.28;9.00;;;;;;;18.70;75.93;100671.25;2102143;83;20990;-79
2021/09/26 08:30:58;;;;;;;10.70;8.03;;;;;;;18.75;76.43;100670.98;2103512;83;21056;-77
2021/09/26 08:34:00;;;;;;;11.20;7.90;;;;;;;18.84;75.57;100659.50;2103774;83;21465;-79
2021/09/26 08:37:01;;;;;;;9.33;7.30;;;;;;;18.91;74.36;100656.27;2107170;83;21047;-79
2021/09/26 08:40:05;;;;;;;15.23;7.92;;;;;;;19.09;74.29;100657.48;2106940;83;21014;-78
2021/09/26 08:43:07;;;;;;;8.85;7.20;;;;;;;19.33;74.49;100656.81;2108061;83;20980;-78
2021/09/26 08:46:13;;;;;;;8.48;7.08;;;;;;;19.64;74.09;100658.78;2099980;83;21110;-77
2021/09/26 08:49:15;;;;;;;9.80;7.25;;;;;;;19.85;72.59;100661.73;2098219;83;21013;-77
2021/09/26 08:52:17;;;;;;;8.23;7.10;;;;;;;20.11;73.05;100661.29;2102491;83;21030;-79
2021/09/26 08:55:18;;;;;;;7.22;6.40;;;;;;;20.30;71.68;100659.48;2106287;83;21004;-76
2021/09/26 08:58:21;;;;;;;7.67;6.78;;;;;;;20.23;70.53;100660.07;2099009;83;21307;-76
2021/09/26 09:01:23;;;;;;;7.25;6.45;;;;;;;20.32;71.66;100661.45;2103611;83;20947;-79
2021/09/26 09:04:36;;;;;;;7.83;7.00;;;;;;;20.44;70.30;100668.31;2102954;83;21540;-79
2021/09/26 09:07:38;;;;;;;8.10;6.78;;;;;;;20.49;70.03;100669.84;2103618;83;21496;-78
2021/09/26 09:10:48;;;;;;;7.55;6.72;;;;;;;20.62;69.84;100671.13;2104663;83;21587;-80
2021/09/26 09:13:58;;;;;;;9.85;6.58;;;;;;;20.65;69.44;100669.33;2097920;83;21090;-79
2021/09/26 09:17:00;;;;;;;7.17;6.47;;;;;;;20.73;69.49;100654.76;2106637;83;21073;-79
2021/09/26 09:20:27;;;;;;;10.28;6.10;;;;;;;20.87;68.96;100650.89;2103813;83;21722;-80
2021/09/26 09:23:31;;;;;;;7.53;6.08;;;;;;;21.08;68.98;100656.92;2104491;83;20958;-79
2021/09/26 09:26:37;;;;;;;6.22;5.62;;;;;;;21.38;68.55;100658.41;2107292;83;21045;-79
2021/09/26 09:29:38;;;;;;;6.83;6.12;;;;;;;21.64;68.67;100653.21;2104233;83;20990;-79
2021/09/26 09:32:45;;;;;;;6.72;5.00;;;;;;;21.93;67.85;100654.27;2080822;83;21007;-78
2021/09/26 09:35:51;;;;;;;5.53;4.87;;;;;;;22.33;65.10;100655.93;2085472;84;21022;-76
2021/09/26 09:38:57;;;;;;;6.53;5.22;;;;;;;22.66;63.08;100643.73;2087772;84;20967;-75
2021/09/26 09:41:59;;;;;;;4.67;4.05;;;;;;;22.71;62.42;100647.11;2087474;84;21482;-77
2021/09/26 09:45:21;;;;;;;4.87;4.37;;;;;;;22.64;63.38;100641.82;2086321;84;21439;-77
2021/09/26 09:48:27;;;;;;;4.60;4.03;;;;;;;23.06;62.17;100647.16;2087072;84;20996;-81
2021/09/26 09:51:29;;;;;;;11.45;5.05;;;;;;;23.32;62.14;100645.82;2080683;84;21037;-78
2021/09/26 09:54:39;;;;;;;5.47;4.97;;;;;;;23.60;59.10;100646.94;2083211;84;20978;-79
2021/09/26 09:57:40;;;;;;;;;;;;;;;23.80;59.34;100636.53;2086105;84;21066;-79
2021/09/26 10:00:55;;;;;;;6.17;4.37;;;;;;;24.06;57.83;100635.11;2086293;84;20116;-80
2021/09/26 10:04:06;;;;;;;8.08;4.53;;;;;;;24.20;58.06;100636.16;2084727;84;21755;-78
2021/09/26 10:07:24;;;;;;;5.05;4.62;;;;;;;24.22;57.52;100638.11;2087530;84;21055;-76
2021/09/26 10:10:33;;;;;;;6.92;4.35;;;;;;;23.91;57.10;100630.77;2078195;84;20987;-77
2021/09/26 10:13:36;;;;;;;4.42;3.77;;;;;;;24.05;57.52;100623.98;2085100;84;21055;-79
2021/09/26 10:16:38;;;;;;;6.22;4.33;;;;;;;24.25;57.38;100620.81;2086161;84;21010;-78
2021/09/26 10:19:39;;;;;;;4.10;3.52;;;;;;;24.32;56.78;100626.87;2080686;84;21062;-75
2021/09/26 10:22:41;;;;;;;4.30;3.45;;;;;;;24.27;53.75;100624.61;2082000;84;21074;-75
2021/09/26 10:25:42;;;;;;;4.33;3.50;;;;;;;24.01;54.81;100626.87;2088438;84;21030;-78
2021/09/26 10:28:45;;;;;;;4.03;3.62;;;;;;;23.96;54.23;100620.55;2083830;84;21058;-75
2021/09/26 10:31:50;;;;;;;5.40;3.55;;;;;;;23.89;55.97;100630.19;2090248;83;21584;-78
2021/09/26 10:34:53;;;;;;;4.37;3.92;;;;;;;23.84;54.49;100620.06;2099959;83;21029;-76
2021/09/26 10:37:55;;;;;;;5.30;3.87;;;;;;;23.63;55.11;100622.90;2103106;83;21054;-75
2021/09/26 10:41:07;;;;;;;5.35;3.35;;;;;;;23.49;54.33;100613.41;2102498;83;21442;-78
2021/09/26 10:44:27;;;;;;;4.35;3.80;;;;;;;23.40;53.63;100606.73;2106080;83;20983;-75
2021/09/26 10:47:32;;;;;;;4.27;3.87;;;;;;;23.34;54.30;100614.43;2107424;83;20990;-75
2021/09/26 10:50:37;;;;;;;5.28;3.65;;;;;;;23.42;54.36;100608.64;2103663;83;21281;-75
2021/09/26 10:53:38;;;;;;;4.22;3.65;;;;;;;23.67;54.05;100614.56;2096204;83;21551;-75
2021/09/26 10:56:40;;;;;;;3.62;3.33;;;;;;;23.88;54.41;100615.00;2102697;83;21483;-74
2021/09/26 10:59:53;;;;;;;4.42;4.03;;;;;;;24.22;54.18;100606.93;2099639;83;22197;-75
2021/09/26 11:02:55;;;;;;;5.30;3.80;;;;;;;24.23;53.50;100608.02;2102325;83;21075;-79
2021/09/26 11:05:56;;;;;;;4.37;3.85;;;;;;;23.95;53.68;100608.89;2105441;83;21355;-75
2021/09/26 11:09:03;;;;;;;3.52;3.22;;;;;;;23.73;53.59;100605.22;2109188;83;21024;-75
2021/09/26 11:12:07;;;;;;;4.30;3.70;;;;;;;23.64;53.96;100601.50;2097398;83;21030;-78
2021/09/26 11:15:22;;;;;;;6.00;3.90;;;;;;;23.57;53.25;100594.07;2104932;83;21422;-76
2021/09/26 11:18:54;;;;;;;3.65;3.35;;;;;;;23.83;52.91;100594.58;2100493;83;21045;-77
2021/09/26 11:22:06;;;;;;;4.35;3.55;;;;;;;23.97;52.49;100597.28;2101926;83;21034;-78
2021/09/26 11:25:07;;;;;;;5.83;4.53;;;;;;;24.11;52.60;100593.19;2101211;83;21023;-79
2021/09/26 11:28:34;;;;;;;5.12;4.12;;;;;;;24.16;51.42;100598.70;2101636;83;21032;-77
2021/09/26 11:31:41;;;;;;;5.70;3.75;;;;;;;24.16;52.55;100589.75;2107931;83;21041;-77
2021/09/26 11:34:51;;;;;;;5.08;4.20;;;;;;;23.86;52.89;100593.55;2091938;83;21120;-77
2021/09/26 11:37:54;;;;;;;5.00;4.60;;;;;;;23.69;53.35;100594.84;2096996;83;21122;-76
2021/09/26 11:41:01;;;;;;;6.72;5.90;;;;;;;23.51;53.53;100600.45;2108092;83;21697;-78
2021/09/26 11:44:06;;;;;;;7.83;6.53;;;;;;;23.22;54.74;100596.33;2103214;83;21053;-77
2021/09/26 11:47:12;;;;;;;9.60;7.08;;;;;;;23.03;55.80;100596.19;2102859;83;21478;-77
2021/09/26 11:50:15;;;;;;;10.70;8.15;;;;;;;22.94;56.41;100595.69;2078529;83;21541;-77
2021/09/26 11:53:19;;;;;;;11.70;8.55;;;;;;;22.68;57.01;100590.78;2104722;83;21001;-78
2021/09/26 11:56:34;;;;;;;8.45;6.75;;;;;;;22.46;57.64;100594.58;2107038;83;21055;-77
2021/09/26 11:59:42;;;;;;;10.08;9.08;;;;;;;22.31;58.27;100587.75;2092391;83;21006;-77
2021/09/26 12:02:43;;;;;;;10.65;8.23;;;;;;;22.09;59.39;100598.78;2104230;83;21003;-77
2021/09/26 12:05:46;;;;;;;10.60;8.40;;;;;;;21.86;59.47;100592.25;2108140;83;21496;-76
2021/09/26 12:08:47;;;;;;;12.93;8.50;;;;;;;21.72;59.90;100592.14;2104532;83;21512;-76
2021/09/26 12:11:50;;;;;;;10.03;6.90;;;;;;;21.62;60.51;100584.56;2103298;83;21529;-77
2021/09/26 12:15:03;;;;;;;10.93;7.90;;;;;;;21.62;60.92;100587.27;2106197;83;21072;-79
2021/09/26 12:18:04;;;;;;;7.85;7.05;;;;;;;21.66;61.06;100583.61;2111434;83;21573;-78
2021/09/26 12:21:09;;;;;;;7.80;7.00;;;;;;;21.73;61.76;100577.57;2103767;83;21715;-77
2021/09/26 12:24:15;;;;;;;10.38;7.50;;;;;;;21.77;61.49;100578.78;2098182;83;21062;-76
2021/09/26 12:27:30;;;;;;;7.53;6.55;;;;;;;21.76;61.17;100577.11;2105876;83;20976;-77
2021/09/26 12:30:51;;;;;;;9.43;6.62;;;;;;;21.87;61.63;100584.43;2099312;83;21050;-76
2021/09/26 12:33:54;;;;;;;6.33;5.72;;;;;;;21.93;61.45;100577.28;2091715;83;21078;-75
2021/09/26 12:36:57;;;;;;;6.65;5.80;;;;;;;21.93;61.22;100578.63;2061714;83;21002;-76
2021/09/26 12:40:06;;;;;;;10.32;6.17;;;;;;;21.89;61.04;100570.17;2099434;83;21025;-77
2021/09/26 12:43:10;;;;;;;6.37;5.08;;;;;;;21.93;61.50;100569.18;2094287;83;21030;-76
2021/09/26 12:46:15;;;;;;;7.42;6.00;;;;;;;21.93;61.17;100559.22;2083791;83;21062;-77
2021/09/26 12:49:19;;;;;;;6.40;5.55;;;;;;;21.89;60.93;100568.83;2096169;82;20986;-77
2021/09/26 12:52:28;;;;;;;6.60;5.03;;;;;;;21.78;60.79;100566.09;2095752;83;21034;-76
2021/09/26 12:55:32;;;;;;;5.90;5.30;;;;;;;21.65;60.95;100571.14;2092664;83;21001;-78
2021/09/26 12:58:39;;;;;;;4.97;4.42;;;;;;;21.52;61.11;100568.64;2096928;83;20937;-76
2021/09/26 13:01:41;;;;;;;6.08;5.00;;;;;;;21.41;61.21;100568.87;2098710;83;21059;-77
2021/09/26 13:05:06;;;;;;;5.85;4.83;;;;;;;21.28;61.58;100570.64;2089563;83;21066;-79
2021/09/26 13:08:19;;;;;;;7.30;5.15;;;;;;;21.19;61.58;100565.78;2098997;83;21060;-77
2021/09/26 13:11:37;;;;;;;5.40;4.80;;;;;;;21.14;61.93;100569.68;2094704;83;21007;-77
2021/09/26 13:14:38;;;;;;;5.20;4.67;;;;;;;21.10;62.16;100565.27;2100414;83;21019;-78
2021/09/26 13:17:44;;;;;;;6.10;4.90;;;;;;;21.06;62.21;100555.95;2095884;83;21124;-77
2021/09/26 13:20:48;;;;;;;7.78;4.42;;;;;;;21.04;62.13;100556.73;2094548;83;21022;-77
2021/09/26 13:24:09;;;;;;;6.97;3.98;;;;;;;21.02;62.05;100553.42;2093825;83;21034;-77
2021/09/26 13:27:34;;;;;;;4.65;4.25;;;;;;;21.02;62.19;100550.73;2099396;83;20996;-80
2021/09/26 13:30:40;;;;;;;4.50;4.10;;;;;;;21.08;62.09;100546.30;2098123;83;21513;-75
2021/09/26 13:33:44;;;;;;;4.85;4.45;;;;;;;21.14;61.79;100549.44;2090779;83;21003;-75
2021/09/26 13:36:53;;;;;;;5.08;4.30;;;;;;;21.16;61.54;100550.05;2088614;84;21039;-76
2021/09/26 13:40:00;;;;;;;4.55;3.65;;;;;;;21.17;61.58;100549.81;2087763;84;21033;-77
2021/09/26 13:43:07;;;;;;;4.97;3.72;;;;;;;21.21;61.25;100552.91;2084195;84;21078;-78
2021/09/26 13:46:11;;;;;;;4.53;3.98;;;;;;;21.33;61.37;100552.42;2081792;84;20999;-75
2021/09/26 13:49:14;;;;;;;8.28;4.50;;;;;;;21.47;61.40;100551.23;2080518;84;21586;-76
2021/09/26 13:52:16;;;;;;;4.35;3.40;;;;;;;21.66;60.89;100551.20;2084645;84;21530;-78
2021/09/26 13:55:19;;;;;;;4.55;3.60;;;;;;;21.71;59.95;100545.94;2088147;84;21060;-76
2021/09/26 13:58:21;;;;;;;5.33;3.77;;;;;;;21.76;60.15;100543.88;2081606;84;21492;-74
2021/09/26 14:01:24;;;;;;;5.00;4.50;;;;;;;21.79;60.27;100550.17;2081693;84;21534;-76
2021/09/26 14:04:25;;;;;;;4.78;3.87;;;;;;;21.87;60.50;100553.36;2079453;84;21046;-75
2021/09/26 14:07:27;;;;;;;7.72;4.10;;;;;;;22.01;59.95;100548.59;2088330;84;20986;-78